»·PEaware :: N3593Q KBFL-KVBG

N3593Q :: KBFL-KVBG

FLIGHT INFORMATION

Flight Status: Arrived
Operator: Privately registered:
United States
More flights under this callsign
Pilot: Rickie R. (16324)
Aircraft: BEECH AIRCRAFT BEECH AIRLINER
(B190)
More flights by this aircraft type
Origin: KBFL Meadows
United States
Destination: KVBG Vandenberg AFB
United States
More flights between these airports :: More routes between these airports
Route: +MEADO3 EHF V183 RZS GVO
File this flight plan on PilotEdge
Remarks:
Altitude:
(Current/Filed)
12,000ft
Speed:
(Current/Filed)
220kts
Departed: 28-Oct-17 01:58 PM
Arrived: 28-Oct-17 02:35 PM
Distance/Time
Traveled:
85nm/0:36
Distance/Time
To Go:
Arrived

Flight Plot

Page will automatically refresh every two minutes.

Flight plan parsing failed; only flown route is shown


Map Options




Map Legend


Flown Route
Filed Route
Departure Airport
Arrival Airport
Navaid (VOR, NDB)
Fix

Horizontal Profiles

Position Reports

Time Latitude Longitude Heading Altitude Ground
Speed
28-Oct-17 13:41 35.437537 -119.055389 105 505ft 0kts
28-Oct-17 13:42 35.437537 -119.055389 105 505ft 0kts
28-Oct-17 13:43 35.437537 -119.055389 105 505ft 0kts
28-Oct-17 13:44 35.437537 -119.055389 105 505ft 0kts
28-Oct-17 13:45 35.437537 -119.055389 105 505ft 0kts
28-Oct-17 13:46 35.437537 -119.055389 105 505ft 0kts
28-Oct-17 13:47 35.437537 -119.055389 105 505ft 0kts
28-Oct-17 13:48 35.437537 -119.055389 105 505ft 0kts
28-Oct-17 13:49 35.437537 -119.055389 105 505ft 0kts
28-Oct-17 13:50 35.437537 -119.055389 105 505ft 0kts
28-Oct-17 13:51 35.437537 -119.055388 105 505ft 0kts
28-Oct-17 13:52 35.437537 -119.055388 105 505ft 0kts
28-Oct-17 13:53 35.437537 -119.055388 105 505ft 0kts
28-Oct-17 13:54 35.437537 -119.055388 105 505ft 0kts
28-Oct-17 13:55 35.436555 -119.055309 142 502ft 5kts
28-Oct-17 13:56 35.434819 -119.055152 135 494ft 6kts
28-Oct-17 13:57 35.433730 -119.053841 134 493ft 6kts
28-Oct-17 13:58 35.431353 -119.050966 136 483ft 10kts
28-Oct-17 13:59 35.429721 -119.048997 135 486ft 10kts
28-Oct-17 14:00 35.427572 -119.046386 136 482ft 10kts
28-Oct-17 14:01 35.425512 -119.044671 243 476ft 0kts
28-Oct-17 14:02 35.425434 -119.044950 257 475ft 7kts
28-Oct-17 14:03 35.444609 -119.069838 315 1415ft 161kts
28-Oct-17 14:04 35.481160 -119.113294 315 3077ft 196kts
28-Oct-17 14:05 35.520702 -119.160684 315 4681ft 201kts
28-Oct-17 14:06 35.551258 -119.211924 255 6214ft 196kts
28-Oct-17 14:07 35.505091 -119.222927 169 7841ft 189kts
28-Oct-17 14:08 35.454562 -119.210340 169 9424ft 182kts
28-Oct-17 14:09 35.405603 -119.197764 169 11015ft 179kts
28-Oct-17 14:10 35.364991 -119.189924 185 12026ft 187kts
28-Oct-17 14:11 35.312181 -119.217336 209 12043ft 224kts
28-Oct-17 14:12 35.246827 -119.261353 210 12038ft 234kts
28-Oct-17 14:13 35.199562 -119.294647 210 12038ft 236kts
28-Oct-17 14:14 35.143605 -119.336995 213 12037ft 237kts
28-Oct-17 14:15 35.088155 -119.380500 213 12037ft 238kts
28-Oct-17 14:16 35.031599 -119.422738 212 12037ft 238kts
28-Oct-17 14:17 34.973803 -119.462402 209 12030ft 240kts
28-Oct-17 14:18 34.915369 -119.501946 209 12020ft 242kts
28-Oct-17 14:19 34.856782 -119.542198 209 12009ft 242kts
28-Oct-17 14:20 34.797959 -119.582655 209 11992ft 242kts
28-Oct-17 14:21 34.739544 -119.622537 209 11990ft 241kts
28-Oct-17 14:22 34.681285 -119.662279 209 11991ft 240kts
28-Oct-17 14:23 34.623042 -119.701982 209 11991ft 240kts
28-Oct-17 14:24 34.564702 -119.741729 209 11595ft 242kts
28-Oct-17 14:25 34.512801 -119.785906 255 10158ft 225kts
28-Oct-17 14:26 34.524843 -119.857539 270 9027ft 209kts
28-Oct-17 14:27 34.524326 -119.926265 269 8990ft 200kts
28-Oct-17 14:28 34.525910 -119.998245 274 8016ft 232kts
28-Oct-17 14:29 34.510108 -120.073898 264 6648ft 244kts
28-Oct-17 14:30 34.503235 -120.154413 263 5948ft 223kts
28-Oct-17 14:31 34.497065 -120.224428 263 5950ft 199kts
28-Oct-17 14:32 34.491730 -120.289381 278 5940ft 190kts
28-Oct-17 14:33 34.522986 -120.340253 318 4870ft 185kts
28-Oct-17 14:34 34.556808 -120.375616 316 4660ft 168kts
28-Oct-17 14:35 34.589621 -120.414861 314 3674ft 197kts
28-Oct-17 14:36 34.622322 -120.451916 317 2700ft 195kts
28-Oct-17 14:37 34.652788 -120.487293 314 2372ft 175kts
28-Oct-17 14:38 34.683557 -120.523024 314 1450ft 159kts
28-Oct-17 14:39 34.714342 -120.558756 323 663ft 145kts
28-Oct-17 14:40 34.730169 -120.575997 330 339ft 22kts
28-Oct-17 14:41 34.733238 -120.573586 48 346ft 12kts
28-Oct-17 14:42 34.734119 -120.571080 138 354ft 9kts
28-Oct-17 14:43 34.731938 -120.570427 48 355ft 0kts
28-Oct-17 14:44 34.731938 -120.570427 48 355ft 0kts
28-Oct-17 14:45 34.731938 -120.570427 48 355ft 0kts
28-Oct-17 14:46 34.731938 -120.570427 48 355ft 0kts
28-Oct-17 14:47 34.731938 -120.570427 48 355ft 0kts
28-Oct-17 14:48 34.731938 -120.570427 48 355ft 0kts
28-Oct-17 14:49 34.731938 -120.570427 48 355ft 0kts
28-Oct-17 14:50 34.731938 -120.570427 48 355ft 0kts
28-Oct-17 14:51 34.731938 -120.570427 48 355ft 0kts
28-Oct-17 14:52 34.731938 -120.570427 48 355ft 0kts
28-Oct-17 14:53 34.731938 -120.570427 48 355ft 0kts
28-Oct-17 14:54 34.731938 -120.570427 48 355ft 0kts

Navigation Log

Ident Type
Flight plan parsing failed, navigation log unavailable